sensor_id;sensor_type;location;lat;lon;timestamp;temperature;humidity
7598;DHT22;3840;59.32098800;18.06423600;2023-05-24T00:01:45;11.00;99.90
7598;DHT22;3840;59.32098800;18.06423600;2023-05-24T00:04:12;11.00;99.90
7598;DHT22;3840;59.32098800;18.06423600;2023-05-24T00:06:40;11.00;99.90
7598;DHT22;3840;59.32098800;18.06423600;2023-05-24T00:09:06;11.00;99.90
7598;DHT22;3840;59.32098800;18.06423600;2023-05-24T00:11:32;10.90;99.90
7598;DHT22;3840;59.32098800;18.06423600;2023-05-24T00:13:58;10.90;99.90
7598;DHT22;3840;59.32098800;18.06423600;2023-05-24T00:16:25;10.90;99.90
7598;DHT22;3840;59.32098800;18.06423600;2023-05-24T00:18:52;10.80;99.90
7598;DHT22;3840;59.32098800;18.06423600;2023-05-24T00:21:19;10.80;99.90
7598;DHT22;3840;59.32098800;18.06423600;2023-05-24T00:23:45;10.70;99.90
7598;DHT22;3840;59.32098800;18.06423600;2023-05-24T00:26:11;10.70;99.90
7598;DHT22;3840;59.32098800;18.06423600;2023-05-24T00:28:38;10.60;99.90
7598;DHT22;3840;59.32098800;18.06423600;2023-05-24T00:31:03;10.60;99.90
7598;DHT22;3840;59.32098800;18.06423600;2023-05-24T00:33:29;10.60;99.90
7598;DHT22;3840;59.32098800;18.06423600;2023-05-24T00:35:55;10.50;99.90
7598;DHT22;3840;59.32098800;18.06423600;2023-05-24T00:38:25;10.50;99.90
7598;DHT22;3840;59.32098800;18.06423600;2023-05-24T00:40:53;10.60;99.90
7598;DHT22;3840;59.32098800;18.06423600;2023-05-24T00:43:22;10.60;99.90
7598;DHT22;3840;59.32098800;18.06423600;2023-05-24T00:48:32;10.40;99.90
7598;DHT22;3840;59.32098800;18.06423600;2023-05-24T00:50:58;10.40;99.90
7598;DHT22;3840;59.32098800;18.06423600;2023-05-24T00:53:23;10.30;99.90
7598;DHT22;3840;59.32098800;18.06423600;2023-05-24T00:55:49;10.30;99.90
7598;DHT22;3840;59.32098800;18.06423600;2023-05-24T00:58:15;10.30;99.90
7598;DHT22;3840;59.32098800;18.06423600;2023-05-24T01:00:42;10.30;99.90
7598;DHT22;3840;59.32098800;18.06423600;2023-05-24T01:03:09;10.30;99.90
7598;DHT22;3840;59.32098800;18.06423600;2023-05-24T01:05:35;10.20;99.90
7598;DHT22;3840;59.32098800;18.06423600;2023-05-24T01:11:08;10.20;99.90
7598;DHT22;3840;59.32098800;18.06423600;2023-05-24T01:13:53;10.20;99.90
7598;DHT22;3840;59.32098800;18.06423600;2023-05-24T01:16:26;10.30;99.90
7598;DHT22;3840;59.32098800;18.06423600;2023-05-24T01:18:56;10.30;99.90
7598;DHT22;3840;59.32098800;18.06423600;2023-05-24T01:21:37;10.30;99.90
7598;DHT22;3840;59.32098800;18.06423600;2023-05-24T01:24:29;10.40;99.90
7598;DHT22;3840;59.32098800;18.06423600;2023-05-24T01:27:13;10.40;99.90
7598;DHT22;3840;59.32098800;18.06423600;2023-05-24T01:29:39;10.40;99.90
7598;DHT22;3840;59.32098800;18.06423600;2023-05-24T01:32:06;10.40;99.90
7598;DHT22;3840;59.32098800;18.06423600;2023-05-24T01:34:33;10.30;99.90
7598;DHT22;3840;59.32098800;18.06423600;2023-05-24T01:36:59;10.30;99.90
7598;DHT22;3840;59.32098800;18.06423600;2023-05-24T01:39:27;10.40;99.90
7598;DHT22;3840;59.32098800;18.06423600;2023-05-24T01:49:54;10.30;99.90
7598;DHT22;3840;59.32098800;18.06423600;2023-05-24T01:52:25;10.30;99.90
7598;DHT22;3840;59.32098800;18.06423600;2023-05-24T01:54:52;10.30;99.90
7598;DHT22;3840;59.32098800;18.06423600;2023-05-24T01:57:22;10.30;99.90
7598;DHT22;3840;59.32098800;18.06423600;2023-05-24T01:59:49;10.40;99.90
7598;DHT22;3840;59.32098800;18.06423600;2023-05-24T02:02:16;10.40;99.90
7598;DHT22;3840;59.32098800;18.06423600;2023-05-24T02:04:45;10.40;99.90
7598;DHT22;3840;59.32098800;18.06423600;2023-05-24T02:07:11;10.40;99.90
7598;DHT22;3840;59.32098800;18.06423600;2023-05-24T02:09:37;10.40;99.90
7598;DHT22;3840;59.32098800;18.06423600;2023-05-24T02:12:04;10.40;99.90
7598;DHT22;3840;59.32098800;18.06423600;2023-05-24T02:14:30;10.40;99.90
7598;DHT22;3840;59.32098800;18.06423600;2023-05-24T02:16:56;10.40;99.90
7598;DHT22;3840;59.32098800;18.06423600;2023-05-24T02:19:24;10.40;99.90
7598;DHT22;3840;59.32098800;18.06423600;2023-05-24T02:21:50;10.40;99.90
7598;DHT22;3840;59.32098800;18.06423600;2023-05-24T02:24:16;10.40;99.90
7598;DHT22;3840;59.32098800;18.06423600;2023-05-24T02:26:43;10.40;99.90
7598;DHT22;3840;59.32098800;18.06423600;2023-05-24T02:29:09;10.60;99.90
7598;DHT22;3840;59.32098800;18.06423600;2023-05-24T02:31:35;10.90;99.90
7598;DHT22;3840;59.32098800;18.06423600;2023-05-24T02:34:01;11.10;99.90
7598;DHT22;3840;59.32098800;18.06423600;2023-05-24T02:36:28;11.50;99.90
7598;DHT22;3840;59.32098800;18.06423600;2023-05-24T02:38:54;11.90;99.90
7598;DHT22;3840;59.32098800;18.06423600;2023-05-24T02:41:21;12.10;99.90
7598;DHT22;3840;59.32098800;18.06423600;2023-05-24T02:43:47;12.40;99.90
7598;DHT22;3840;59.32098800;18.06423600;2023-05-24T02:46:13;12.60;99.90
7598;DHT22;3840;59.32098800;18.06423600;2023-05-24T02:48:39;13.00;99.90
7598;DHT22;3840;59.32098800;18.06423600;2023-05-24T02:51:05;13.40;99.90
7598;DHT22;3840;59.32098800;18.06423600;2023-05-24T02:53:31;13.60;99.90
7598;DHT22;3840;59.32098800;18.06423600;2023-05-24T02:55:58;13.70;99.90
7598;DHT22;3840;59.32098800;18.06423600;2023-05-24T02:58:24;13.90;99.90
7598;DHT22;3840;59.32098800;18.06423600;2023-05-24T03:00:53;14.20;99.90
7598;DHT22;3840;59.32098800;18.06423600;2023-05-24T03:03:19;14.50;99.90
7598;DHT22;3840;59.32098800;18.06423600;2023-05-24T03:05:44;14.70;99.90
7598;DHT22;3840;59.32098800;18.06423600;2023-05-24T03:08:10;14.70;99.90
7598;DHT22;3840;59.32098800;18.06423600;2023-05-24T03:10:36;14.90;99.90
7598;DHT22;3840;59.32098800;18.06423600;2023-05-24T03:13:01;15.20;99.90
7598;DHT22;3840;59.32098800;18.06423600;2023-05-24T03:15:30;15.40;99.90
7598;DHT22;3840;59.32098800;18.06423600;2023-05-24T03:17:55;15.60;99.90
7598;DHT22;3840;59.32098800;18.06423600;2023-05-24T03:20:22;15.90;99.90
7598;DHT22;3840;59.32098800;18.06423600;2023-05-24T03:22:49;16.20;99.90
7598;DHT22;3840;59.32098800;18.06423600;2023-05-24T03:25:14;16.30;99.90
7598;DHT22;3840;59.32098800;18.06423600;2023-05-24T03:27:41;16.60;99.90
7598;DHT22;3840;59.32098800;18.06423600;2023-05-24T03:30:07;17.00;99.90
7598;DHT22;3840;59.32098800;18.06423600;2023-05-24T03:32:33;17.30;99.90
7598;DHT22;3840;59.32098800;18.06423600;2023-05-24T03:34:59;17.60;99.90
7598;DHT22;3840;59.32098800;18.06423600;2023-05-24T03:37:26;17.70;99.90
7598;DHT22;3840;59.32098800;18.06423600;2023-05-24T03:39:52;17.40;99.90
7598;DHT22;3840;59.32098800;18.06423600;2023-05-24T03:42:17;17.60;99.90
7598;DHT22;3840;59.32098800;18.06423600;2023-05-24T03:44:43;18.00;99.90
7598;DHT22;3840;59.32098800;18.06423600;2023-05-24T03:47:09;18.10;99.90
7598;DHT22;3840;59.32098800;18.06423600;2023-05-24T03:49:35;18.20;99.90
7598;DHT22;3840;59.32098800;18.06423600;2023-05-24T03:52:00;18.10;99.90
7598;DHT22;3840;59.32098800;18.06423600;2023-05-24T03:54:26;18.70;99.90
7598;DHT22;3840;59.32098800;18.06423600;2023-05-24T03:56:53;18.50;99.90
7598;DHT22;3840;59.32098800;18.06423600;2023-05-24T03:59:19;18.30;99.90
7598;DHT22;3840;59.32098800;18.06423600;2023-05-24T04:01:46;18.60;99.90
7598;DHT22;3840;59.32098800;18.06423600;2023-05-24T04:04:11;18.70;99.90
7598;DHT22;3840;59.32098800;18.06423600;2023-05-24T04:06:37;18.40;99.90
7598;DHT22;3840;59.32098800;18.06423600;2023-05-24T04:09:06;18.60;99.90
7598;DHT22;3840;59.32098800;18.06423600;2023-05-24T04:11:32;19.00;99.90
7598;DHT22;3840;59.32098800;18.06423600;2023-05-24T04:13:58;19.00;99.90
7598;DHT22;3840;59.32098800;18.06423600;2023-05-24T04:16:27;19.00;99.90
7598;DHT22;3840;59.32098800;18.06423600;2023-05-24T04:18:57;19.10;99.90
7598;DHT22;3840;59.32098800;18.06423600;2023-05-24T04:21:22;19.20;99.90
7598;DHT22;3840;59.32098800;18.06423600;2023-05-24T04:23:48;19.10;99.90
7598;DHT22;3840;59.32098800;18.06423600;2023-05-24T04:26:14;19.10;99.90
7598;DHT22;3840;59.32098800;18.06423600;2023-05-24T04:28:40;19.40;99.90
7598;DHT22;3840;59.32098800;18.06423600;2023-05-24T04:31:06;19.50;99.90
7598;DHT22;3840;59.32098800;18.06423600;2023-05-24T04:33:33;19.70;99.90
7598;DHT22;3840;59.32098800;18.06423600;2023-05-24T04:35:59;20.10;99.90
7598;DHT22;3840;59.32098800;18.06423600;2023-05-24T04:38:26;20.00;99.90
7598;DHT22;3840;59.32098800;18.06423600;2023-05-24T04:41:00;19.90;99.90
7598;DHT22;3840;59.32098800;18.06423600;2023-05-24T04:43:27;20.30;99.90
7598;DHT22;3840;59.32098800;18.06423600;2023-05-24T04:45:53;20.70;99.90
7598;DHT22;3840;59.32098800;18.06423600;2023-05-24T04:48:23;20.50;99.90
7598;DHT22;3840;59.32098800;18.06423600;2023-05-24T04:50:56;20.60;99.90
7598;DHT22;3840;59.32098800;18.06423600;2023-05-24T04:53:23;21.10;99.90
7598;DHT22;3840;59.32098800;18.06423600;2023-05-24T04:55:49;20.50;99.90
7598;DHT22;3840;59.32098800;18.06423600;2023-05-24T04:58:16;19.00;99.90
7598;DHT22;3840;59.32098800;18.06423600;2023-05-24T05:00:42;18.00;99.90
7598;DHT22;3840;59.32098800;18.06423600;2023-05-24T05:03:08;17.30;99.90
7598;DHT22;3840;59.32098800;18.06423600;2023-05-24T05:05:34;16.80;99.90
7598;DHT22;3840;59.32098800;18.06423600;2023-05-24T05:08:01;16.50;99.90
7598;DHT22;3840;59.32098800;18.06423600;2023-05-24T05:10:28;16.30;99.90
7598;DHT22;3840;59.32098800;18.06423600;2023-05-24T05:12:54;16.30;99.90
7598;DHT22;3840;59.32098800;18.06423600;2023-05-24T05:15:24;16.20;99.90
7598;DHT22;3840;59.32098800;18.06423600;2023-05-24T05:17:50;16.10;99.90
7598;DHT22;3840;59.32098800;18.06423600;2023-05-24T05:20:15;16.10;99.90
7598;DHT22;3840;59.32098800;18.06423600;2023-05-24T05:22:48;15.90;99.90
7598;DHT22;3840;59.32098800;18.06423600;2023-05-24T05:25:13;15.90;99.90
7598;DHT22;3840;59.32098800;18.06423600;2023-05-24T05:27:39;16.00;99.90
7598;DHT22;3840;59.32098800;18.06423600;2023-05-24T05:30:05;16.10;99.90
7598;DHT22;3840;59.32098800;18.06423600;2023-05-24T05:32:33;16.20;99.90
7598;DHT22;3840;59.32098800;18.06423600;2023-05-24T05:34:58;16.10;99.90
7598;DHT22;3840;59.32098800;18.06423600;2023-05-24T05:37:24;16.20;99.90
7598;DHT22;3840;59.32098800;18.06423600;2023-05-24T05:39:52;16.20;99.90
7598;DHT22;3840;59.32098800;18.06423600;2023-05-24T05:42:18;16.20;99.90
7598;DHT22;3840;59.32098800;18.06423600;2023-05-24T05:44:43;16.20;99.90
7598;DHT22;3840;59.32098800;18.06423600;2023-05-24T05:47:09;16.30;99.90
7598;DHT22;3840;59.32098800;18.06423600;2023-05-24T05:49:35;16.40;99.90
7598;DHT22;3840;59.32098800;18.06423600;2023-05-24T05:52:04;16.50;99.90
7598;DHT22;3840;59.32098800;18.06423600;2023-05-24T05:54:30;16.60;99.90
7598;DHT22;3840;59.32098800;18.06423600;2023-05-24T05:56:57;16.60;99.90
7598;DHT22;3840;59.32098800;18.06423600;2023-05-24T05:59:25;16.70;99.90
7598;DHT22;3840;59.32098800;18.06423600;2023-05-24T06:01:51;16.80;99.90
7598;DHT22;3840;59.32098800;18.06423600;2023-05-24T06:04:17;16.80;99.90
7598;DHT22;3840;59.32098800;18.06423600;2023-05-24T06:06:43;16.80;99.90
7598;DHT22;3840;59.32098800;18.06423600;2023-05-24T06:09:18;17.00;99.90
7598;DHT22;3840;59.32098800;18.06423600;2023-05-24T06:11:44;17.10;99.90
7598;DHT22;3840;59.32098800;18.06423600;2023-05-24T06:14:11;17.20;99.90
7598;DHT22;3840;59.32098800;18.06423600;2023-05-24T06:16:43;17.20;99.90
7598;DHT22;3840;59.32098800;18.06423600;2023-05-24T06:19:11;17.20;99.90
7598;DHT22;3840;59.32098800;18.06423600;2023-05-24T06:21:37;17.10;99.90
7598;DHT22;3840;59.32098800;18.06423600;2023-05-24T06:24:03;17.00;99.90
7598;DHT22;3840;59.32098800;18.06423600;2023-05-24T06:26:30;17.00;99.90
7598;DHT22;3840;59.32098800;18.06423600;2023-05-24T06:28:56;17.00;99.90
7598;DHT22;3840;59.32098800;18.06423600;2023-05-24T06:31:21;17.00;99.90
7598;DHT22;3840;59.32098800;18.06423600;2023-05-24T06:33:47;17.10;99.90
7598;DHT22;3840;59.32098800;18.06423600;2023-05-24T06:36:13;17.00;99.90
7598;DHT22;3840;59.32098800;18.06423600;2023-05-24T06:38:38;17.10;99.90
7598;DHT22;3840;59.32098800;18.06423600;2023-05-24T06:41:04;17.10;99.90
7598;DHT22;3840;59.32098800;18.06423600;2023-05-24T06:43:31;17.10;99.90
7598;DHT22;3840;59.32098800;18.06423600;2023-05-24T06:45:57;17.40;99.90
7598;DHT22;3840;59.32098800;18.06423600;2023-05-24T06:48:23;17.40;99.90
7598;DHT22;3840;59.32098800;18.06423600;2023-05-24T06:50:50;17.30;99.90
7598;DHT22;3840;59.32098800;18.06423600;2023-05-24T06:53:24;17.30;99.90
7598;DHT22;3840;59.32098800;18.06423600;2023-05-24T06:55:50;17.30;99.90
7598;DHT22;3840;59.32098800;18.06423600;2023-05-24T06:58:15;17.30;99.90
7598;DHT22;3840;59.32098800;18.06423600;2023-05-24T07:00:41;17.30;99.90
7598;DHT22;3840;59.32098800;18.06423600;2023-05-24T07:03:08;17.30;99.90
7598;DHT22;3840;59.32098800;18.06423600;2023-05-24T07:05:34;17.40;99.90
7598;DHT22;3840;59.32098800;18.06423600;2023-05-24T07:08:00;17.50;99.90
7598;DHT22;3840;59.32098800;18.06423600;2023-05-24T07:10:26;17.60;99.90
7598;DHT22;3840;59.32098800;18.06423600;2023-05-24T07:12:53;17.70;99.90
7598;DHT22;3840;59.32098800;18.06423600;2023-05-24T07:15:18;17.60;99.90
7598;DHT22;3840;59.32098800;18.06423600;2023-05-24T07:17:44;17.80;99.90
7598;DHT22;3840;59.32098800;18.06423600;2023-05-24T07:20:11;17.80;99.90
7598;DHT22;3840;59.32098800;18.06423600;2023-05-24T07:22:38;17.80;99.90
7598;DHT22;3840;59.32098800;18.06423600;2023-05-24T07:25:04;17.80;99.90
7598;DHT22;3840;59.32098800;18.06423600;2023-05-24T07:27:30;17.90;99.90
7598;DHT22;3840;59.32098800;18.06423600;2023-05-24T07:29:58;18.00;99.90
7598;DHT22;3840;59.32098800;18.06423600;2023-05-24T07:32:23;18.00;99.90
7598;DHT22;3840;59.32098800;18.06423600;2023-05-24T07:34:49;18.00;99.90
7598;DHT22;3840;59.32098800;18.06423600;2023-05-24T07:37:15;18.10;99.90
7598;DHT22;3840;59.32098800;18.06423600;2023-05-24T07:39:43;18.20;99.90
7598;DHT22;3840;59.32098800;18.06423600;2023-05-24T07:42:09;18.30;99.90
7598;DHT22;3840;59.32098800;18.06423600;2023-05-24T07:44:35;18.40;99.90
7598;DHT22;3840;59.32098800;18.06423600;2023-05-24T07:47:00;18.40;99.90
7598;DHT22;3840;59.32098800;18.06423600;2023-05-24T07:49:27;18.40;99.90
7598;DHT22;3840;59.32098800;18.06423600;2023-05-24T07:51:53;18.40;99.90
7598;DHT22;3840;59.32098800;18.06423600;2023-05-24T07:54:22;18.40;99.90
7598;DHT22;3840;59.32098800;18.06423600;2023-05-24T07:56:48;18.50;99.90
7598;DHT22;3840;59.32098800;18.06423600;2023-05-24T07:59:13;18.60;99.90
7598;DHT22;3840;59.32098800;18.06423600;2023-05-24T08:01:39;18.60;99.90
7598;DHT22;3840;59.32098800;18.06423600;2023-05-24T08:04:05;18.60;99.90
7598;DHT22;3840;59.32098800;18.06423600;2023-05-24T08:06:35;18.70;99.90
7598;DHT22;3840;59.32098800;18.06423600;2023-05-24T08:09:01;18.70;99.90
7598;DHT22;3840;59.32098800;18.06423600;2023-05-24T08:11:28;18.80;99.90
7598;DHT22;3840;59.32098800;18.06423600;2023-05-24T08:13:54;18.70;99.90
7598;DHT22;3840;59.32098800;18.06423600;2023-05-24T08:16:21;18.80;99.90
7598;DHT22;3840;59.32098800;18.06423600;2023-05-24T08:18:48;18.50;99.90
7598;DHT22;3840;59.32098800;18.06423600;2023-05-24T08:21:17;18.80;99.90
7598;DHT22;3840;59.32098800;18.06423600;2023-05-24T08:23:42;18.90;99.90
7598;DHT22;3840;59.32098800;18.06423600;2023-05-24T08:26:08;18.90;99.90
7598;DHT22;3840;59.32098800;18.06423600;2023-05-24T08:28:34;18.90;99.90
7598;DHT22;3840;59.32098800;18.06423600;2023-05-24T08:31:01;18.90;99.90
7598;DHT22;3840;59.32098800;18.06423600;2023-05-24T08:33:28;19.00;99.90
7598;DHT22;3840;59.32098800;18.06423600;2023-05-24T08:35:54;19.10;99.90
7598;DHT22;3840;59.32098800;18.06423600;2023-05-24T08:38:20;19.10;99.90
7598;DHT22;3840;59.32098800;18.06423600;2023-05-24T08:40:46;19.10;99.90
7598;DHT22;3840;59.32098800;18.06423600;2023-05-24T08:43:13;19.10;99.90
7598;DHT22;3840;59.32098800;18.06423600;2023-05-24T08:45:40;19.10;99.90
7598;DHT22;3840;59.32098800;18.06423600;2023-05-24T08:48:08;19.10;99.90
7598;DHT22;3840;59.32098800;18.06423600;2023-05-24T08:50:37;19.20;99.90
7598;DHT22;3840;59.32098800;18.06423600;2023-05-24T08:53:05;19.20;99.90
7598;DHT22;3840;59.32098800;18.06423600;2023-05-24T08:55:31;19.20;99.90
7598;DHT22;3840;59.32098800;18.06423600;2023-05-24T08:57:58;19.20;99.90
7598;DHT22;3840;59.32098800;18.06423600;2023-05-24T09:00:25;19.20;99.90
7598;DHT22;3840;59.32098800;18.06423600;2023-05-24T09:02:51;19.30;99.90
7598;DHT22;3840;59.32098800;18.06423600;2023-05-24T09:05:18;19.20;99.90
7598;DHT22;3840;59.32098800;18.06423600;2023-05-24T09:07:48;19.30;99.90
7598;DHT22;3840;59.32098800;18.06423600;2023-05-24T09:10:19;19.20;99.90
7598;DHT22;3840;59.32098800;18.06423600;2023-05-24T09:12:50;19.20;99.90
7598;DHT22;3840;59.32098800;18.06423600;2023-05-24T09:15:18;19.30;99.90
7598;DHT22;3840;59.32098800;18.06423600;2023-05-24T09:17:45;19.40;99.90
7598;DHT22;3840;59.32098800;18.06423600;2023-05-24T09:20:12;19.50;99.90
7598;DHT22;3840;59.32098800;18.06423600;2023-05-24T09:22:40;19.50;99.90
7598;DHT22;3840;59.32098800;18.06423600;2023-05-24T09:25:07;19.50;99.90
7598;DHT22;3840;59.32098800;18.06423600;2023-05-24T09:27:34;19.50;99.90
7598;DHT22;3840;59.32098800;18.06423600;2023-05-24T09:30:01;19.60;99.90
7598;DHT22;3840;59.32098800;18.06423600;2023-05-24T09:32:29;19.50;99.90
7598;DHT22;3840;59.32098800;18.06423600;2023-05-24T09:34:56;19.70;99.90
7598;DHT22;3840;59.32098800;18.06423600;2023-05-24T09:37:23;19.70;99.90
7598;DHT22;3840;59.32098800;18.06423600;2023-05-24T09:39:52;19.80;99.90
7598;DHT22;3840;59.32098800;18.06423600;2023-05-24T09:42:22;19.80;99.90
7598;DHT22;3840;59.32098800;18.06423600;2023-05-24T09:45:03;19.90;99.90
7598;DHT22;3840;59.32098800;18.06423600;2023-05-24T09:47:40;20.00;99.90
7598;DHT22;3840;59.32098800;18.06423600;2023-05-24T09:50:15;20.00;99.90
7598;DHT22;3840;59.32098800;18.06423600;2023-05-24T09:52:41;20.10;99.90
7598;DHT22;3840;59.32098800;18.06423600;2023-05-24T09:55:18;20.10;99.90
7598;DHT22;3840;59.32098800;18.06423600;2023-05-24T09:57:51;20.20;99.90
7598;DHT22;3840;59.32098800;18.06423600;2023-05-24T10:00:23;20.20;99.90
7598;DHT22;3840;59.32098800;18.06423600;2023-05-24T10:03:00;20.20;99.90
7598;DHT22;3840;59.32098800;18.06423600;2023-05-24T10:05:29;20.40;99.90
7598;DHT22;3840;59.32098800;18.06423600;2023-05-24T10:07:57;20.50;99.90
7598;DHT22;3840;59.32098800;18.06423600;2023-05-24T10:10:29;20.50;99.90
7598;DHT22;3840;59.32098800;18.06423600;2023-05-24T10:12:56;21.00;99.90
7598;DHT22;3840;59.32098800;18.06423600;2023-05-24T10:15:22;20.40;99.90
7598;DHT22;3840;59.32098800;18.06423600;2023-05-24T10:17:52;20.40;99.90
7598;DHT22;3840;59.32098800;18.06423600;2023-05-24T10:20:19;20.40;99.90
7598;DHT22;3840;59.32098800;18.06423600;2023-05-24T10:22:46;20.40;99.90
7598;DHT22;3840;59.32098800;18.06423600;2023-05-24T10:25:22;20.50;99.90
7598;DHT22;3840;59.32098800;18.06423600;2023-05-24T10:27:54;20.60;99.90
7598;DHT22;3840;59.32098800;18.06423600;2023-05-24T10:33:00;20.60;99.90
7598;DHT22;3840;59.32098800;18.06423600;2023-05-24T10:35:27;20.70;99.90
7598;DHT22;3840;59.32098800;18.06423600;2023-05-24T10:37:53;20.80;99.90
7598;DHT22;3840;59.32098800;18.06423600;2023-05-24T10:40:21;20.90;99.90
7598;DHT22;3840;59.32098800;18.06423600;2023-05-24T10:42:50;21.00;99.90
7598;DHT22;3840;59.32098800;18.06423600;2023-05-24T10:45:31;21.10;99.90
7598;DHT22;3840;59.32098800;18.06423600;2023-05-24T10:50:39;20.90;99.90
7598;DHT22;3840;59.32098800;18.06423600;2023-05-24T10:53:20;21.00;99.90
7598;DHT22;3840;59.32098800;18.06423600;2023-05-24T10:55:55;20.80;99.90
7598;DHT22;3840;59.32098800;18.06423600;2023-05-24T10:58:56;20.80;99.90
7598;DHT22;3840;59.32098800;18.06423600;2023-05-24T11:01:30;21.00;99.60
7598;DHT22;3840;59.32098800;18.06423600;2023-05-24T11:04:15;21.10;99.90
7598;DHT22;3840;59.32098800;18.06423600;2023-05-24T11:06:46;21.10;99.90
7598;DHT22;3840;59.32098800;18.06423600;2023-05-24T11:09:15;21.00;99.90
7598;DHT22;3840;59.32098800;18.06423600;2023-05-24T11:12:08;21.00;99.90
7598;DHT22;3840;59.32098800;18.06423600;2023-05-24T11:14:38;21.10;99.90
7598;DHT22;3840;59.32098800;18.06423600;2023-05-24T11:17:07;21.10;99.90
7598;DHT22;3840;59.32098800;18.06423600;2023-05-24T11:19:48;21.00;99.90
7598;DHT22;3840;59.32098800;18.06423600;2023-05-24T11:22:15;21.20;99.90
7598;DHT22;3840;59.32098800;18.06423600;2023-05-24T11:24:41;21.30;99.90
7598;DHT22;3840;59.32098800;18.06423600;2023-05-24T11:27:09;21.40;99.90
7598;DHT22;3840;59.32098800;18.06423600;2023-05-24T11:29:45;21.40;99.90
7598;DHT22;3840;59.32098800;18.06423600;2023-05-24T11:32:19;21.30;99.90
7598;DHT22;3840;59.32098800;18.06423600;2023-05-24T11:34:48;21.40;99.90
7598;DHT22;3840;59.32098800;18.06423600;2023-05-24T11:37:14;21.40;99.90
7598;DHT22;3840;59.32098800;18.06423600;2023-05-24T11:39:40;21.50;99.90
7598;DHT22;3840;59.32098800;18.06423600;2023-05-24T11:42:07;21.70;99.90
7598;DHT22;3840;59.32098800;18.06423600;2023-05-24T11:44:34;21.80;99.90
7598;DHT22;3840;59.32098800;18.06423600;2023-05-24T11:47:06;21.80;99.90
7598;DHT22;3840;59.32098800;18.06423600;2023-05-24T11:49:32;21.60;99.90
7598;DHT22;3840;59.32098800;18.06423600;2023-05-24T11:51:58;21.70;99.90
7598;DHT22;3840;59.32098800;18.06423600;2023-05-24T11:54:26;21.70;99.90
7598;DHT22;3840;59.32098800;18.06423600;2023-05-24T11:56:53;21.80;99.90
7598;DHT22;3840;59.32098800;18.06423600;2023-05-24T11:59:24;21.80;99.90
7598;DHT22;3840;59.32098800;18.06423600;2023-05-24T12:02:02;21.80;99.90
7598;DHT22;3840;59.32098800;18.06423600;2023-05-24T12:04:29;21.70;99.90
7598;DHT22;3840;59.32098800;18.06423600;2023-05-24T12:06:55;21.60;99.90
7598;DHT22;3840;59.32098800;18.06423600;2023-05-24T12:09:21;21.80;99.90
7598;DHT22;3840;59.32098800;18.06423600;2023-05-24T12:11:48;21.80;99.90
7598;DHT22;3840;59.32098800;18.06423600;2023-05-24T12:14:27;21.80;99.90
7598;DHT22;3840;59.32098800;18.06423600;2023-05-24T12:16:56;21.90;99.90
7598;DHT22;3840;59.32098800;18.06423600;2023-05-24T12:19:24;21.90;99.90
7598;DHT22;3840;59.32098800;18.06423600;2023-05-24T12:21:56;22.00;99.90
7598;DHT22;3840;59.32098800;18.06423600;2023-05-24T12:24:23;22.00;99.90
7598;DHT22;3840;59.32098800;18.06423600;2023-05-24T12:26:49;22.00;99.90
7598;DHT22;3840;59.32098800;18.06423600;2023-05-24T12:29:15;22.00;99.90
7598;DHT22;3840;59.32098800;18.06423600;2023-05-24T12:31:47;22.00;99.90
7598;DHT22;3840;59.32098800;18.06423600;2023-05-24T12:34:14;22.10;99.90
7598;DHT22;3840;59.32098800;18.06423600;2023-05-24T12:36:42;22.20;99.90
7598;DHT22;3840;59.32098800;18.06423600;2023-05-24T12:39:22;22.30;99.90
7598;DHT22;3840;59.32098800;18.06423600;2023-05-24T12:41:52;22.40;99.20
7598;DHT22;3840;59.32098800;18.06423600;2023-05-24T12:44:25;22.60;99.30
7598;DHT22;3840;59.32098800;18.06423600;2023-05-24T12:46:55;22.60;99.90
7598;DHT22;3840;59.32098800;18.06423600;2023-05-24T12:49:22;22.60;99.90
7598;DHT22;3840;59.32098800;18.06423600;2023-05-24T12:51:49;22.50;99.90
7598;DHT22;3840;59.32098800;18.06423600;2023-05-24T12:54:16;22.60;99.90
7598;DHT22;3840;59.32098800;18.06423600;2023-05-24T12:56:44;22.50;99.90
7598;DHT22;3840;59.32098800;18.06423600;2023-05-24T12:59:09;22.50;99.90
7598;DHT22;3840;59.32098800;18.06423600;2023-05-24T13:01:36;22.50;99.90
7598;DHT22;3840;59.32098800;18.06423600;2023-05-24T13:04:02;22.50;99.90
7598;DHT22;3840;59.32098800;18.06423600;2023-05-24T13:06:28;22.40;99.90
7598;DHT22;3840;59.32098800;18.06423600;2023-05-24T13:08:54;22.40;99.90
7598;DHT22;3840;59.32098800;18.06423600;2023-05-24T13:11:19;22.50;99.90
7598;DHT22;3840;59.32098800;18.06423600;2023-05-24T13:13:45;22.60;99.90
7598;DHT22;3840;59.32098800;18.06423600;2023-05-24T13:16:11;22.80;99.90
7598;DHT22;3840;59.32098800;18.06423600;2023-05-24T13:18:37;22.90;99.90
7598;DHT22;3840;59.32098800;18.06423600;2023-05-24T13:21:03;23.00;99.90
7598;DHT22;3840;59.32098800;18.06423600;2023-05-24T13:23:33;23.10;99.90
7598;DHT22;3840;59.32098800;18.06423600;2023-05-24T13:26:02;23.20;99.90
7598;DHT22;3840;59.32098800;18.06423600;2023-05-24T13:28:29;23.40;99.90
7598;DHT22;3840;59.32098800;18.06423600;2023-05-24T13:30:55;23.40;99.90
7598;DHT22;3840;59.32098800;18.06423600;2023-05-24T13:33:21;23.50;99.90
7598;DHT22;3840;59.32098800;18.06423600;2023-05-24T13:35:47;23.50;99.90
7598;DHT22;3840;59.32098800;18.06423600;2023-05-24T13:38:12;23.50;99.90
7598;DHT22;3840;59.32098800;18.06423600;2023-05-24T13:40:39;23.50;99.90
7598;DHT22;3840;59.32098800;18.06423600;2023-05-24T13:43:05;23.50;99.90
7598;DHT22;3840;59.32098800;18.06423600;2023-05-24T13:45:31;23.50;99.90
7598;DHT22;3840;59.32098800;18.06423600;2023-05-24T13:47:58;23.50;99.90
7598;DHT22;3840;59.32098800;18.06423600;2023-05-24T13:50:29;23.50;99.90
7598;DHT22;3840;59.32098800;18.06423600;2023-05-24T13:52:57;23.50;99.90
7598;DHT22;3840;59.32098800;18.06423600;2023-05-24T13:55:23;23.50;99.90
7598;DHT22;3840;59.32098800;18.06423600;2023-05-24T13:57:48;23.50;99.90